• Join FlightAware (Why Join?)
  • Login
  • US Flag 
07:26PM EDT


 

Airport Tracker/Info


-or-


 

Live Flight TrackerFlight Track Log ✈ QXE2576 ✈ 12-Jun-2013 ✈ KSMF - KPDX

Flight Track Log - Related Links

Times and Time Zones

All times are in EDT time to prevent confusion due to time zone crossing. See the QXE2576 flight status page for this flight to view local times or setup timezone preferences in your user account.

Time Position Orientation Groundspeed Altitude Reporting Facility
EDT Latitude Longitude Course Direction KTS MPH feet Rate Location/Type
03:49PM 39.1962 -121.8168 341° North  Level FlightAware Approximate
03:50PM 39.2822 -121.8542 342° North  Level FlightAware Approximate
03:51PM 39.3683 -121.8909 342° North  Level FlightAware Approximate
03:52PM 39.4547 -121.9269 342° North  Level FlightAware Approximate
03:53PM 39.5196 -121.8438 45° Northeast  Level FlightAware Approximate
03:54PM 39.6105 -121.8540 351° North  Level Estimated
03:55PM 39.7014 -121.8643 352° North  Level Estimated
03:56PM 39.7920 -121.8788 353° North  Level FlightAware Approximate
03:57PM 39.8826 -121.8932 353° North  Level FlightAware Approximate
03:58PM 39.9732 -121.9078 353° North  Level FlightAware Approximate
03:59PM 40.0637 -121.9223 353° North  Level FlightAware Approximate
04:00PM 40.1543 -121.9369 353° North  Level FlightAware Approximate
04:01PM 40.2449 -121.9516 353° North  Level FlightAware Approximate
04:02PM 40.3355 -121.9662 353° North  Level FlightAware Approximate
04:03PM 40.4260 -121.9809 353° North  Level FlightAware Approximate
04:04PM 40.5166 -121.9957 353° North  Level FlightAware Approximate
04:05PM 40.6072 -122.0105 353° North  Level FlightAware Approximate
04:06PM 40.6977 -122.0253 353° North  Level FlightAware Approximate
04:07PM 40.7707 -122.0373 353° North  Level FlightAware Approximate
04:08PM 40.8436 -122.0493 353° North  Level FlightAware Approximate
04:09PM 40.9166 -122.0613 353° North  Level FlightAware Approximate
04:10PM 40.9895 -122.0734 353° North  Level FlightAware Approximate
04:11PM 41.0624 -122.0855 353° North  Level FlightAware Approximate
04:12PM 41.1354 -122.0976 353° North  Level FlightAware Approximate
04:13PM 41.2083 -122.1097 353° North  Level FlightAware Approximate
04:14PM 41.2816 -122.1173 351° North  Level Estimated
04:15PM 41.3542 -122.1325 351° North  Level FlightAware Approximate
04:16PM 41.4268 -122.1478 351° North  Level FlightAware Approximate
04:17PM 41.4994 -122.1631 351° North  Level FlightAware Approximate
04:18PM 41.5720 -122.1784 351° North  Level FlightAware Approximate
04:19PM 41.6446 -122.1938 351° North  Level FlightAware Approximate
04:20PM 41.7172 -122.2092 351° North  Level FlightAware Approximate
04:21PM 41.7898 -122.2246 351° North  Level FlightAware Approximate
04:22PM 41.8624 -122.2401 351° North  Level FlightAware Approximate
04:23PM 41.9350 -122.2555 351° North  Level FlightAware Approximate
04:24PM 42.0076 -122.2711 351° North  Level FlightAware Approximate
04:25PM 42.0802 -122.2867 351° North  Level FlightAware Approximate
04:26PM 42.1528 -122.3023 351° North  Level FlightAware Approximate
04:27PM 42.2254 -122.3179 351° North  Level FlightAware Approximate
04:28PM 42.2980 -122.3336 351° North  Level FlightAware Approximate
04:29PM 42.3706 -122.3493 351° North  Level FlightAware Approximate
04:30PM 42.4431 -122.3650 351° North  Level FlightAware Approximate
04:31PM 42.5157 -122.3808 351° North  Level FlightAware Approximate
04:32PM 42.5883 -122.3966 351° North  Level FlightAware Approximate
04:33PM 42.6609 -122.4125 351° North  Level FlightAware Approximate
04:34PM 42.7334 -122.4284 351° North  Level FlightAware Approximate
04:35PM 42.8217 -122.4410 354° North  Level FlightAware Approximate
04:36PM 42.9099 -122.4537 354° North  Level FlightAware Approximate
04:37PM 42.9981 -122.4664 354° North  Level FlightAware Approximate
04:38PM 43.0838 -122.4981 345° North  Level FlightAware Approximate
04:39PM 43.1701 -122.5258 350° North  Level FlightAware Approximate
04:40PM 43.2574 -122.5476 350° North  Level FlightAware Approximate
04:41PM 43.3447 -122.5694 350° North  Level FlightAware Approximate
04:42PM 43.4319 -122.5913 350° North  Level FlightAware Approximate
04:43PM 43.5195 -122.6105 352° North  Level FlightAware Approximate
04:44PM 43.6073 -122.6279 352° North  Level FlightAware Approximate
04:45PM 43.6952 -122.6473 351° North  Level FlightAware Approximate
04:46PM 43.7831 -122.6667 351° North  Level FlightAware Approximate
04:47PM 43.8710 -122.6862 351° North  Level FlightAware Approximate
04:48PM 43.9591 -122.7037 354° North  Level FlightAware Approximate
04:49PM 44.0477 -122.7163 354° North  Level FlightAware Approximate
04:50PM 44.1333 -122.7500 344° North  Level FlightAware Approximate
04:51PM 44.2201 -122.7285 North  Level FlightAware Approximate
04:52PM 44.3089 -122.7204 North  Level FlightAware Approximate
04:53PM 44.3978 -122.7123 North  Level FlightAware Approximate
04:54PM 44.4866 -122.7043 North  Level FlightAware Approximate
04:55PM 44.5755 -122.7000 North  Level FlightAware Approximate
04:56PM 44.6644 -122.6965 North  Level FlightAware Approximate
04:57PM 44.7444 -122.6877 North  Level FlightAware Approximate
04:58PM 44.8245 -122.6792 North  Level FlightAware Approximate
04:59PM 44.9045 -122.6712 North  Level FlightAware Approximate
05:00PM 44.9847 -122.6663 10° North  Level FlightAware Approximate
05:01PM 45.0639 -122.6500 North  Level FlightAware Approximate
05:02PM 45.1442 -122.6500 North  Level FlightAware Approximate
05:03PM 45.2242 -122.6428 North  Level FlightAware Approximate
05:04PM 45.3042 -122.6333 North  Level FlightAware Approximate
05:05PM 45.3910 -122.6167 North  Level FlightAware Approximate
05:06PM 45.4580 -122.5768 74° East  Level FlightAware Approximate
05:07PM 45.4994 -122.5988 306° West  Level FlightAware Approximate
05:08PM 45.5833 -122.5833 North  Level FlightAware Approximate
05:09PM 45.5887 -122.5969 North  Level Estimated
05:10PM 45.5887 -122.5969 North  Level Estimated
05:11PM 45.5887 -122.5969 North  Level Estimated
05:12PM 45.5887 -122.5969 North  Level Estimated